KGSP/GSP METAR and TAF weather

Enter ICAO airport designator
Station Type Date Time Source
KGSP METAR 2020/04/09 18:53 UTC NOAA

KGSP 091853Z 25017G27KT 10SM CLR 27/03 A2963 RMK AO2 PK WND 27027/1845 SLP022 T02720033


Station Type Date Time Source
KGSP Decoded METAR 2020/04/09 18:53 UTC NOAA

GREER GREENVILLE SPARTBURG, SC, United States (KGSP) 34-53N 82-13W 286M
Apr 09, 2020 - 02:53 PM EDT / 2020.04.09 1853 UTC
Wind: from the WSW (250 degrees) at 20 MPH (17 KT) gusting to 31 MPH (27 KT):0
Visibility: 10 mile(s):0
Sky conditions: clear
Temperature: 81.0 F (27.2 C)
Dew Point: 37.9 F (3.3 C)
Relative Humidity: 21%
Pressure (altimeter): 29.63 in. Hg (1003 hPa)
ob: KGSP 091853Z 25017G27KT 10SM CLR 27/03 A2963 RMK AO2 PK WND 27027/1845 SLP022 T02720033
cycle: 19

Station Type Date Time Source
KGSP TAF 2020/04/09 18:46 UTC NOAA

TAF KGSP 091744Z 0918/1018 28014G27KT P6SM SKC
FM100200 27010KT P6SM FEW250
FM100900 30012KT P6SM FEW250
FM101000 34013G25KT P6SM SKC

Example: see airport list